Negombo, Sri Lanka
Current Conditions -  °F | °C
As of 8:10 PM on Tuesday 27 Jan 2015 (Local Time) from VCBI Reporting Station
Scattered Clouds Scattered Clouds  
Wind Chill: 82°   Ceiling: Unl
Heat Index: 85°   Visibility: 6mi
Dew Point: 68°   Wind: 8mph
Humidity: 62%   Direction: 10°N
Pressure: 29.83"   Gusts: NA
Location:  7.22°N, 79.83°E
Report Text: VCBI 271410Z 01007KT 9999 SCT035 28/20 Q1010 NOSIG
Loading
Personal Weather Stations






























Interactive Weather Map New forecast layout! Learn more

10-Day Weather Forecast

Advertisements
Track Severe Weather on mobile